createdAt,value
2022-10-29T00:02:23.063Z,14.34
2022-10-29T00:04:49.974Z,14.34
2022-10-29T00:07:18.182Z,14.37
2022-10-29T00:09:45.371Z,14.43
2022-10-29T00:12:12.432Z,14.46
2022-10-29T00:14:39.465Z,14.51
2022-10-29T00:17:06.495Z,14.57
2022-10-29T00:22:17.259Z,14.61
2022-10-29T00:24:44.028Z,14.61
2022-10-29T00:27:11.046Z,14.51
2022-10-29T00:29:39.110Z,14.46
2022-10-29T00:32:06.745Z,14.45
2022-10-29T00:34:33.912Z,14.43
2022-10-29T00:37:03.435Z,14.40
2022-10-29T00:39:31.344Z,14.39
2022-10-29T00:41:58.487Z,14.39
2022-10-29T00:44:26.707Z,14.43
2022-10-29T00:46:57.621Z,14.44
2022-10-29T00:49:25.011Z,14.39
2022-10-29T00:51:51.955Z,14.36
2022-10-29T00:54:19.115Z,14.36
2022-10-29T00:56:57.846Z,14.38
2022-10-29T00:59:24.807Z,14.36
2022-10-29T01:01:51.790Z,14.36
2022-10-29T01:04:18.868Z,14.35
2022-10-29T01:06:47.476Z,14.36
2022-10-29T01:09:15.010Z,14.36
2022-10-29T01:12:00.975Z,14.35
2022-10-29T01:14:44.810Z,14.32
2022-10-29T01:17:25.846Z,14.31
2022-10-29T01:20:11.772Z,14.29
2022-10-29T01:23:04.934Z,14.29
2022-10-29T01:25:37.821Z,14.28
2022-10-29T01:28:09.783Z,14.26
2022-10-29T01:30:45.826Z,14.21
2022-10-29T01:33:16.883Z,14.19
2022-10-29T01:36:08.487Z,14.16
2022-10-29T01:41:31.034Z,14.06
2022-10-29T01:43:59.719Z,14.00
2022-10-29T01:46:32.049Z,13.92
2022-10-29T01:49:01.782Z,13.89
2022-10-29T01:51:30.523Z,13.88
2022-10-29T01:53:57.827Z,13.80
2022-10-29T01:56:25.643Z,13.76
2022-10-29T01:58:53.825Z,13.78
2022-10-29T02:01:40.513Z,13.81
2022-10-29T02:04:10.805Z,13.78
2022-10-29T02:06:48.050Z,13.71
2022-10-29T02:09:32.050Z,13.67
2022-10-29T02:12:00.952Z,13.64
2022-10-29T02:14:35.233Z,13.62
2022-10-29T02:17:02.396Z,13.57
2022-10-29T02:19:32.952Z,13.54
2022-10-29T02:22:00.557Z,13.56
2022-10-29T02:24:27.946Z,13.54
2022-10-29T02:26:54.955Z,13.52
2022-10-29T02:29:22.285Z,13.49
2022-10-29T02:31:49.779Z,13.46
2022-10-29T02:34:16.904Z,13.41
2022-10-29T02:36:46.531Z,13.36
2022-10-29T02:39:13.434Z,13.31
2022-10-29T02:41:40.634Z,13.28
2022-10-29T02:44:08.014Z,13.27
2022-10-29T02:46:40.307Z,13.24
2022-10-29T02:49:09.164Z,13.15
2022-10-29T02:51:37.002Z,13.07
2022-10-29T02:54:04.038Z,13.02
2022-10-29T02:56:30.920Z,13.03
2022-10-29T02:58:58.119Z,12.99
2022-10-29T03:01:27.761Z,12.92
2022-10-29T03:03:55.316Z,12.88
2022-10-29T03:06:22.243Z,12.90
2022-10-29T03:08:49.209Z,12.94
2022-10-29T03:11:16.056Z,12.97
2022-10-29T03:13:43.005Z,12.96
2022-10-29T03:16:10.241Z,12.92
2022-10-29T03:18:37.264Z,12.96
2022-10-29T03:21:05.055Z,12.90
2022-10-29T03:23:32.464Z,12.79
2022-10-29T03:25:59.539Z,12.69
2022-10-29T03:28:28.032Z,12.61
2022-10-29T03:30:55.481Z,12.55
2022-10-29T03:33:22.390Z,12.54
2022-10-29T03:35:49.978Z,12.50
2022-10-29T03:38:17.550Z,12.43
2022-10-29T03:40:45.541Z,12.44
2022-10-29T03:43:12.805Z,12.39
2022-10-29T03:45:39.603Z,12.30
2022-10-29T03:48:06.389Z,12.13
2022-10-29T03:50:33.071Z,12.01
2022-10-29T03:52:59.993Z,11.93
2022-10-29T03:55:29.433Z,11.90
2022-10-29T03:57:56.610Z,11.90
2022-10-29T04:00:23.886Z,11.86
2022-10-29T04:02:50.644Z,11.86
2022-10-29T04:05:17.456Z,11.83
2022-10-29T04:07:44.384Z,11.78
2022-10-29T04:10:11.157Z,11.78
2022-10-29T04:12:38.463Z,11.77
2022-10-29T04:15:05.590Z,11.71
2022-10-29T04:17:32.637Z,11.69
2022-10-29T04:19:59.380Z,11.68
2022-10-29T04:30:46.621Z,11.59
2022-10-29T04:33:13.343Z,11.55
2022-10-29T04:35:40.487Z,11.50
2022-10-29T04:38:10.989Z,11.63
2022-10-29T04:40:37.792Z,11.58
2022-10-29T04:43:04.602Z,11.52
2022-10-29T04:45:31.611Z,11.50
2022-10-29T04:48:05.246Z,11.45
2022-10-29T04:50:32.423Z,11.43
2022-10-29T04:53:02.878Z,11.34
2022-10-29T04:55:29.776Z,11.28
2022-10-29T04:57:56.665Z,11.29
2022-10-29T05:00:23.852Z,11.32
2022-10-29T05:02:51.075Z,11.34
2022-10-29T05:05:18.377Z,11.44
2022-10-29T05:07:45.211Z,11.50
2022-10-29T05:10:12.008Z,11.49
2022-10-29T05:12:38.854Z,11.46
2022-10-29T05:15:05.990Z,11.45
2022-10-29T05:17:32.788Z,11.44
2022-10-29T05:19:59.502Z,11.45
2022-10-29T05:22:26.105Z,11.46
2022-10-29T05:24:52.790Z,11.47
2022-10-29T05:27:19.493Z,11.51
2022-10-29T05:29:46.219Z,11.43
2022-10-29T05:32:12.938Z,11.32
2022-10-29T05:34:42.035Z,11.32
2022-10-29T05:37:11.008Z,11.31
2022-10-29T05:39:37.788Z,11.26
2022-10-29T05:42:04.482Z,11.19
2022-10-29T05:44:31.152Z,11.20
2022-10-29T05:46:57.970Z,11.28
2022-10-29T05:49:24.577Z,11.34
2022-10-29T05:51:53.296Z,11.39
2022-10-29T05:54:20.011Z,11.44
2022-10-29T05:56:46.638Z,11.55
2022-10-29T05:59:13.229Z,11.58
2022-10-29T06:01:40.394Z,11.58
2022-10-29T06:04:07.267Z,11.56
2022-10-29T06:06:34.313Z,11.59
2022-10-29T06:09:01.207Z,11.50
2022-10-29T06:11:27.914Z,11.44
2022-10-29T06:13:57.554Z,11.50
2022-10-29T06:16:24.214Z,11.46
2022-10-29T06:18:50.861Z,11.50
2022-10-29T06:21:17.633Z,11.58
2022-10-29T06:23:44.246Z,11.79
2022-10-29T06:26:11.072Z,11.70
2022-10-29T06:28:37.620Z,11.75
2022-10-29T06:31:04.425Z,11.82
2022-10-29T06:33:31.184Z,11.98
2022-10-29T06:36:01.181Z,12.13
2022-10-29T06:38:27.714Z,12.21
2022-10-29T06:40:54.408Z,12.25
2022-10-29T06:43:21.275Z,12.40
2022-10-29T06:45:48.767Z,12.61
2022-10-29T06:48:19.185Z,12.61
2022-10-29T06:50:48.461Z,12.69
2022-10-29T06:53:15.192Z,12.94
2022-10-29T06:55:42.002Z,13.19
2022-10-29T06:58:13.433Z,13.46
2022-10-29T07:00:40.369Z,13.48
2022-10-29T07:03:07.507Z,13.78
2022-10-29T07:05:34.240Z,14.03
2022-10-29T07:08:01.309Z,14.45
2022-10-29T07:10:31.738Z,14.48
2022-10-29T07:12:58.392Z,14.67
2022-10-29T07:15:27.602Z,14.88
2022-10-29T07:17:56.420Z,15.06
2022-10-29T07:20:23.487Z,15.17
2022-10-29T07:22:50.031Z,15.18
2022-10-29T07:25:16.716Z,15.14
2022-10-29T07:27:43.375Z,15.26
2022-10-29T07:30:10.322Z,15.33
2022-10-29T07:32:37.060Z,15.42
2022-10-29T07:35:04.007Z,15.47
2022-10-29T07:37:32.751Z,15.50
2022-10-29T07:39:59.295Z,15.48
2022-10-29T07:42:26.014Z,15.49
2022-10-29T07:44:52.855Z,15.44
2022-10-29T07:47:19.666Z,15.47
2022-10-29T07:49:46.284Z,15.54
2022-10-29T07:52:13.121Z,15.74
2022-10-29T07:54:39.830Z,16.06
2022-10-29T07:57:06.639Z,16.20
2022-10-29T07:59:33.201Z,16.44
2022-10-29T08:01:59.809Z,16.70
2022-10-29T08:04:26.433Z,16.98
2022-10-29T08:06:53.247Z,17.11
2022-10-29T08:09:20.008Z,17.25
2022-10-29T08:14:13.572Z,17.50
2022-10-29T08:16:41.783Z,17.56
2022-10-29T08:19:09.418Z,17.59
2022-10-29T08:21:36.915Z,17.53
2022-10-29T08:24:03.921Z,17.43
2022-10-29T08:26:30.629Z,17.38
2022-10-29T08:28:57.343Z,17.38
2022-10-29T08:31:24.150Z,17.55
2022-10-29T08:33:50.964Z,17.68
2022-10-29T08:36:17.895Z,18.03
2022-10-29T08:38:44.610Z,18.47
2022-10-29T08:41:23.533Z,18.74
2022-10-29T08:43:56.416Z,19.00
2022-10-29T08:46:26.164Z,19.27
2022-10-29T08:48:53.808Z,19.44
2022-10-29T08:51:23.720Z,19.99
2022-10-29T08:54:10.288Z,20.49
2022-10-29T08:56:39.185Z,20.73
2022-10-29T08:59:13.922Z,20.46
2022-10-29T09:01:41.475Z,20.36
2022-10-29T09:04:19.333Z,19.52
2022-10-29T09:07:02.801Z,19.71
2022-10-29T09:09:46.876Z,19.42
2022-10-29T09:12:16.121Z,19.91
2022-10-29T09:15:03.200Z,20.24
2022-10-29T09:17:37.432Z,20.82
2022-10-29T09:20:24.773Z,21.07
2022-10-29T09:22:57.885Z,21.86
2022-10-29T09:25:30.738Z,22.14
2022-10-29T09:28:14.618Z,22.53
2022-10-29T09:30:55.843Z,23.29
2022-10-29T09:33:31.226Z,24.15
2022-10-29T09:36:06.050Z,24.56
2022-10-29T09:38:36.988Z,25.13
2022-10-29T09:41:03.796Z,25.65
2022-10-29T09:43:45.822Z,25.95
2022-10-29T09:46:13.078Z,26.19
2022-10-29T09:48:39.867Z,26.49
2022-10-29T09:51:10.115Z,26.36
2022-10-29T09:53:36.862Z,27.27
2022-10-29T09:56:06.301Z,28.05
2022-10-29T09:58:35.353Z,28.44
2022-10-29T10:06:29.015Z,29.41
2022-10-29T10:09:05.831Z,29.31
2022-10-29T10:11:42.308Z,28.79
2022-10-29T10:14:18.655Z,28.72
2022-10-29T10:16:46.495Z,28.36
2022-10-29T10:19:26.754Z,27.74
2022-10-29T10:21:59.774Z,27.63
2022-10-29T10:24:36.545Z,27.42
2022-10-29T10:27:24.735Z,26.10
2022-10-29T10:30:03.876Z,25.85
2022-10-29T10:32:31.269Z,24.92
2022-10-29T10:35:00.644Z,25.24
2022-10-29T10:37:27.534Z,24.67
2022-10-29T10:40:04.357Z,24.31
2022-10-29T10:42:33.885Z,23.78
2022-10-29T10:45:01.863Z,23.64
2022-10-29T10:47:29.342Z,23.40
2022-10-29T10:50:05.851Z,23.36
2022-10-29T10:52:32.431Z,23.33
2022-10-29T10:54:59.993Z,23.14
2022-10-29T10:57:36.531Z,23.03
2022-10-29T11:00:03.304Z,23.16
2022-10-29T11:02:32.345Z,23.25
2022-10-29T11:05:02.240Z,23.60
2022-10-29T11:07:32.966Z,24.25
2022-10-29T11:09:59.493Z,24.98
2022-10-29T11:12:28.263Z,25.57
2022-10-29T11:14:56.006Z,25.46
2022-10-29T11:17:26.165Z,26.16
2022-10-29T11:19:52.845Z,26.36
2022-10-29T11:22:23.345Z,25.87
2022-10-29T11:24:49.851Z,24.87
2022-10-29T11:27:21.076Z,24.06
2022-10-29T11:29:52.617Z,23.33
2022-10-29T11:32:37.900Z,23.70
2022-10-29T11:35:05.488Z,23.81
2022-10-29T11:37:47.581Z,23.61
2022-10-29T11:40:16.114Z,23.72
2022-10-29T11:42:42.676Z,23.72
2022-10-29T11:45:11.445Z,24.95
2022-10-29T11:48:03.273Z,26.13
2022-10-29T11:50:45.627Z,26.34
2022-10-29T11:53:21.537Z,26.16
2022-10-29T11:56:01.753Z,26.50
2022-10-29T11:58:38.169Z,26.78
2022-10-29T12:01:11.555Z,25.73
2022-10-29T12:03:43.610Z,24.91
2022-10-29T12:06:26.460Z,24.22
2022-10-29T12:08:55.963Z,24.08
2022-10-29T12:11:27.526Z,24.12
2022-10-29T12:14:01.809Z,23.95
2022-10-29T12:16:31.431Z,24.18
2022-10-29T12:18:57.950Z,24.43
2022-10-29T12:21:33.550Z,24.73
2022-10-29T12:24:19.020Z,25.23
2022-10-29T12:26:48.720Z,25.41
2022-10-29T12:29:18.261Z,24.99
2022-10-29T12:31:45.231Z,24.67
2022-10-29T12:34:32.080Z,24.74
2022-10-29T12:37:00.742Z,25.04
2022-10-29T12:39:35.450Z,25.04
2022-10-29T12:42:03.360Z,24.94
2022-10-29T12:44:51.661Z,25.03
2022-10-29T12:47:23.828Z,24.84
2022-10-29T12:50:09.090Z,24.81
2022-10-29T12:52:35.666Z,24.77
2022-10-29T12:55:02.442Z,24.65
2022-10-29T12:57:33.119Z,24.42
2022-10-29T13:00:18.495Z,24.38
2022-10-29T13:02:45.306Z,24.52
2022-10-29T13:05:14.006Z,24.74
2022-10-29T13:07:46.862Z,24.55
2022-10-29T13:10:22.989Z,24.39
2022-10-29T13:12:55.953Z,24.28
2022-10-29T13:15:32.954Z,23.99
2022-10-29T13:18:12.064Z,23.96
2022-10-29T13:20:39.718Z,23.94
2022-10-29T13:23:25.035Z,23.71
2022-10-29T13:25:52.679Z,23.78
2022-10-29T13:28:23.933Z,23.52
2022-10-29T13:31:13.662Z,23.49
2022-10-29T13:33:40.445Z,23.57
2022-10-29T13:36:16.566Z,23.69
2022-10-29T13:38:58.657Z,23.85
2022-10-29T13:41:40.082Z,23.99
2022-10-29T13:44:25.970Z,24.14
2022-10-29T13:46:54.604Z,24.20
2022-10-29T13:49:25.604Z,24.19
2022-10-29T13:51:55.691Z,23.86
2022-10-29T13:54:24.411Z,23.88
2022-10-29T13:57:01.119Z,23.67
2022-10-29T13:59:44.458Z,23.50
2022-10-29T14:02:17.182Z,23.25
2022-10-29T14:04:44.390Z,22.88
2022-10-29T14:07:15.144Z,22.47
2022-10-29T14:09:46.689Z,22.06
2022-10-29T14:12:15.931Z,21.70
2022-10-29T14:14:58.061Z,21.48
2022-10-29T14:17:24.888Z,21.21
2022-10-29T14:19:52.034Z,21.14
2022-10-29T14:22:18.745Z,21.06
2022-10-29T14:24:45.701Z,21.02
2022-10-29T14:27:12.762Z,20.90
2022-10-29T14:29:39.799Z,20.82
2022-10-29T14:32:15.779Z,20.76
2022-10-29T14:34:42.755Z,20.64
2022-10-29T14:37:28.180Z,20.57
2022-10-29T14:39:58.477Z,20.50
2022-10-29T14:42:35.980Z,20.46
2022-10-29T14:45:03.892Z,20.46
2022-10-29T14:47:33.404Z,20.44
2022-10-29T14:50:02.970Z,20.38
2022-10-29T14:52:33.636Z,20.33
2022-10-29T14:55:06.580Z,20.31
2022-10-29T14:57:34.402Z,20.22
2022-10-29T15:00:04.783Z,20.16
2022-10-29T15:02:37.991Z,20.14
2022-10-29T15:05:07.862Z,20.06
2022-10-29T15:07:35.706Z,20.03
2022-10-29T15:10:09.045Z,19.93
2022-10-29T15:12:37.037Z,19.83
2022-10-29T15:15:10.075Z,19.75
2022-10-29T15:17:37.193Z,19.68
2022-10-29T15:20:05.069Z,19.59
2022-10-29T15:22:33.147Z,19.50
2022-10-29T15:24:59.918Z,19.38
2022-10-29T15:27:26.927Z,19.28
2022-10-29T15:29:53.563Z,19.22
2022-10-29T15:32:20.144Z,19.10
2022-10-29T15:34:53.788Z,19.05
2022-10-29T15:37:20.253Z,18.96
2022-10-29T15:39:56.943Z,18.90
2022-10-29T15:42:27.445Z,18.90
2022-10-29T15:45:08.713Z,18.84
2022-10-29T15:47:36.616Z,18.78
2022-10-29T15:50:03.804Z,18.75
2022-10-29T15:52:37.426Z,18.71
2022-10-29T15:55:11.886Z,18.65
2022-10-29T15:57:38.602Z,18.53
2022-10-29T16:00:08.550Z,18.40
2022-10-29T16:02:35.298Z,18.29
2022-10-29T16:05:01.944Z,18.16
2022-10-29T16:07:28.617Z,18.07
2022-10-29T16:09:55.265Z,18.00
2022-10-29T16:12:22.134Z,17.89
2022-10-29T16:14:48.838Z,17.77
2022-10-29T16:17:19.501Z,17.70
2022-10-29T16:19:46.223Z,17.70
2022-10-29T16:22:33.040Z,17.63
2022-10-29T16:24:59.872Z,17.52
2022-10-29T16:27:26.457Z,17.43
2022-10-29T16:29:53.110Z,17.36
2022-10-29T16:32:21.674Z,17.24
2022-10-29T16:34:48.350Z,17.16
2022-10-29T16:37:16.000Z,16.94
2022-10-29T16:39:42.772Z,16.82
2022-10-29T16:42:32.834Z,16.77
2022-10-29T16:44:59.491Z,16.75
2022-10-29T16:47:26.287Z,16.74
2022-10-29T16:49:52.931Z,16.78
2022-10-29T16:52:23.102Z,16.83
2022-10-29T16:54:50.919Z,16.80
2022-10-29T16:57:17.612Z,16.86
2022-10-29T16:59:44.222Z,17.02
2022-10-29T17:02:11.478Z,17.17
2022-10-29T17:04:38.284Z,17.37
2022-10-29T17:07:04.964Z,17.35
2022-10-29T17:09:35.321Z,17.33
2022-10-29T17:12:02.287Z,17.33
2022-10-29T17:14:28.894Z,17.41
2022-10-29T17:16:57.268Z,17.41
2022-10-29T17:19:24.369Z,17.47
2022-10-29T17:21:51.141Z,17.53
2022-10-29T17:24:17.691Z,17.68
2022-10-29T17:26:44.345Z,17.72
2022-10-29T17:29:11.434Z,17.78
2022-10-29T17:31:38.117Z,17.75
2022-10-29T17:34:04.756Z,17.80
2022-10-29T17:36:31.533Z,17.65
2022-10-29T17:38:58.185Z,17.50
2022-10-29T17:41:24.727Z,17.51
2022-10-29T17:43:51.514Z,17.54
2022-10-29T17:46:18.286Z,17.55
2022-10-29T17:48:44.891Z,17.55
2022-10-29T17:51:11.455Z,17.53
2022-10-29T17:53:38.247Z,17.59
2022-10-29T17:56:04.901Z,17.63
2022-10-29T17:58:31.622Z,17.77
2022-10-29T18:01:05.258Z,17.77
2022-10-29T18:03:32.021Z,17.72
2022-10-29T18:06:02.228Z,17.67
2022-10-29T18:08:29.716Z,17.56
2022-10-29T18:11:03.535Z,17.61
2022-10-29T18:13:33.997Z,17.64
2022-10-29T18:16:01.161Z,17.43
2022-10-29T18:18:27.882Z,17.38
2022-10-29T18:20:54.476Z,17.23
2022-10-29T18:23:21.049Z,17.20
2022-10-29T18:26:06.996Z,17.11
2022-10-29T18:28:33.992Z,17.04
2022-10-29T18:31:00.597Z,16.91
2022-10-29T18:33:27.249Z,16.77
2022-10-29T18:35:54.162Z,16.70
2022-10-29T18:38:20.610Z,16.58
2022-10-29T18:40:56.567Z,16.44
2022-10-29T18:43:24.057Z,16.47
2022-10-29T18:45:57.549Z,16.47
2022-10-29T18:48:24.281Z,16.51
2022-10-29T18:50:51.436Z,16.47
2022-10-29T18:53:18.419Z,16.62
2022-10-29T18:55:52.145Z,16.72
2022-10-29T18:58:19.099Z,16.70
2022-10-29T19:00:45.831Z,16.57
2022-10-29T19:03:12.710Z,16.43
2022-10-29T19:05:39.520Z,16.25
2022-10-29T19:08:06.917Z,16.04
2022-10-29T19:10:40.314Z,15.86
2022-10-29T19:13:07.032Z,15.76
2022-10-29T19:15:34.150Z,15.77
2022-10-29T19:18:00.886Z,15.52
2022-10-29T19:20:27.981Z,15.68
2022-10-29T19:22:55.521Z,15.84
2022-10-29T19:25:22.737Z,15.98
2022-10-29T19:27:49.963Z,16.09
2022-10-29T19:30:17.166Z,16.27
2022-10-29T19:32:43.850Z,16.35
2022-10-29T19:35:10.560Z,16.40
2022-10-29T19:37:37.106Z,16.44
2022-10-29T19:40:03.865Z,16.50
2022-10-29T19:42:30.429Z,16.56
2022-10-29T19:44:57.196Z,16.62
2022-10-29T19:47:23.843Z,16.73
2022-10-29T19:49:50.592Z,16.85
2022-10-29T19:52:17.150Z,16.83
2022-10-29T19:54:43.811Z,16.72
2022-10-29T19:57:10.369Z,16.76
2022-10-29T19:59:36.852Z,16.83
2022-10-29T20:02:03.540Z,16.76
2022-10-29T20:04:30.299Z,16.85
2022-10-29T20:06:56.756Z,16.76
2022-10-29T20:09:23.442Z,16.62
2022-10-29T20:11:49.894Z,16.65
2022-10-29T20:14:16.434Z,16.72
2022-10-29T20:16:42.989Z,16.71
2022-10-29T20:19:10.581Z,16.71
2022-10-29T20:21:37.087Z,16.59
2022-10-29T20:24:03.958Z,16.38
2022-10-29T20:26:31.233Z,16.20
2022-10-29T20:28:57.808Z,16.30
2022-10-29T20:31:27.849Z,16.28
2022-10-29T20:33:57.246Z,16.32
2022-10-29T20:36:24.802Z,16.25
2022-10-29T20:38:52.021Z,16.17
2022-10-29T20:41:18.571Z,16.14
2022-10-29T20:43:45.407Z,16.23
2022-10-29T20:46:11.984Z,16.29
2022-10-29T20:48:38.662Z,16.21
2022-10-29T20:51:05.243Z,16.15
2022-10-29T20:53:31.818Z,16.21
2022-10-29T20:55:58.370Z,16.19
2022-10-29T20:58:24.896Z,16.32
2022-10-29T21:00:51.619Z,16.23
2022-10-29T21:03:18.334Z,16.19
2022-10-29T21:05:44.872Z,16.29
2022-10-29T21:08:11.530Z,16.30
2022-10-29T21:10:38.014Z,16.41
2022-10-29T21:13:04.872Z,16.48
2022-10-29T21:15:31.387Z,16.55
2022-10-29T21:18:01.014Z,16.57
2022-10-29T21:20:27.522Z,16.67
2022-10-29T21:22:54.312Z,16.68
2022-10-29T21:25:21.162Z,16.57
2022-10-29T21:27:47.730Z,16.57
2022-10-29T21:30:14.320Z,16.59
2022-10-29T21:32:40.851Z,16.56
2022-10-29T21:35:07.750Z,16.46
2022-10-29T21:37:34.471Z,16.46
2022-10-29T21:40:05.000Z,16.46
2022-10-29T21:42:32.976Z,16.38
2022-10-29T21:44:59.691Z,16.38
2022-10-29T21:47:26.362Z,16.37
2022-10-29T21:49:53.077Z,16.29
2022-10-29T21:52:19.588Z,16.19
2022-10-29T21:54:46.218Z,16.15
2022-10-29T21:57:12.919Z,16.08
2022-10-29T21:59:39.536Z,15.95
2022-10-29T22:02:06.296Z,15.88
2022-10-29T22:04:32.976Z,15.85
2022-10-29T22:07:00.119Z,15.82
2022-10-29T22:09:26.815Z,15.97
2022-10-29T22:11:53.528Z,15.93
2022-10-29T22:14:20.016Z,16.28
2022-10-29T22:16:46.693Z,16.33
2022-10-29T22:19:13.284Z,16.46
2022-10-29T22:21:40.753Z,16.21
2022-10-29T22:24:07.427Z,16.07
2022-10-29T22:26:34.973Z,16.04
2022-10-29T22:29:01.552Z,15.99
2022-10-29T22:31:28.491Z,16.20
2022-10-29T22:33:55.252Z,16.34
2022-10-29T22:36:22.601Z,16.61
2022-10-29T22:38:55.844Z,16.74
2022-10-29T22:41:22.551Z,16.86
2022-10-29T22:43:49.190Z,16.85
2022-10-29T22:46:16.169Z,16.86
2022-10-29T22:48:43.761Z,16.91
2022-10-29T22:51:14.821Z,17.28
2022-10-29T22:53:41.679Z,17.18
2022-10-29T22:56:09.256Z,17.01
2022-10-29T22:58:36.024Z,16.86
2022-10-29T23:01:02.706Z,16.77
2022-10-29T23:03:29.362Z,16.66
2022-10-29T23:05:56.428Z,16.65
2022-10-29T23:08:23.040Z,16.68
2022-10-29T23:10:49.464Z,16.83
2022-10-29T23:13:16.568Z,16.86
2022-10-29T23:15:47.204Z,16.73
2022-10-29T23:18:13.873Z,16.65
2022-10-29T23:20:40.622Z,16.77
2022-10-29T23:23:07.301Z,16.68
2022-10-29T23:25:33.984Z,16.62
2022-10-29T23:28:00.545Z,16.56
2022-10-29T23:30:27.163Z,16.52
2022-10-29T23:32:53.701Z,16.53
2022-10-29T23:35:20.220Z,16.56
2022-10-29T23:37:46.770Z,16.61
2022-10-29T23:40:13.291Z,16.62
2022-10-29T23:42:39.836Z,16.65
2022-10-29T23:45:07.951Z,16.68
2022-10-29T23:47:34.530Z,16.69
2022-10-29T23:50:01.051Z,16.69
2022-10-29T23:52:27.551Z,16.69
2022-10-29T23:54:54.178Z,16.65
2022-10-29T23:57:20.714Z,17.12
2022-10-29T23:59:47.166Z,17.03
